Sturgis, South Dakota
Current Conditions -  °F | °C
As of 12:35 PM on Thursday 18 Dec 2014 (Local Time) from KSPF Reporting Station
Clear Clear  
Wind Chill: 31°   Ceiling: Unl
Heat Index: 39°   Visibility: 10mi
Dew Point: 25°   Wind: 14mph
Humidity: 56%   Direction: 270°W
Pressure: 29.96"   Gusts: 21mph
Location:  44.42°N, 103.5°W
Report Text: KSPF 181935Z AUTO 27012G18KT 10SM CLR 04/M04 A2996 RMK AO2
Loading
Personal Weather Stations






























Interactive Weather Map New forecast layout! Learn more

10-Day Weather Forecast

Advertisements
Track Severe Weather on mobile